createdAt,value
2019-03-29T00:01:46.424Z,23.10
2019-03-29T00:06:51.178Z,28.38
2019-03-29T00:11:55.998Z,26.15
2019-03-29T00:17:00.747Z,28.35
2019-03-29T00:22:05.507Z,28.80
2019-03-29T00:27:10.336Z,27.20
2019-03-29T00:32:15.080Z,26.25
2019-03-29T00:37:19.886Z,26.68
2019-03-29T00:42:24.694Z,28.60
2019-03-29T00:47:30.042Z,29.27
2019-03-29T00:52:34.994Z,30.10
2019-03-29T00:57:39.761Z,29.45
2019-03-29T01:02:44.933Z,30.62
2019-03-29T01:07:50.098Z,30.15
2019-03-29T01:12:55.000Z,33.63
2019-03-29T01:17:59.819Z,34.00
2019-03-29T01:23:04.728Z,33.63
2019-03-29T01:28:09.523Z,32.55
2019-03-29T01:33:14.348Z,35.75
2019-03-29T01:38:22.138Z,30.62
2019-03-29T01:43:25.579Z,33.00
2019-03-29T01:48:30.277Z,35.68
2019-03-29T01:53:35.039Z,35.25
2019-03-29T01:58:39.859Z,33.55
2019-03-29T02:03:44.574Z,33.98
2019-03-29T02:08:49.329Z,35.35
2019-03-29T02:13:54.158Z,35.10
2019-03-29T02:18:58.978Z,33.78
2019-03-29T02:24:04.098Z,37.40
2019-03-29T02:29:08.842Z,37.28
2019-03-29T02:34:15.702Z,36.88
2019-03-29T02:39:21.073Z,39.45
2019-03-29T02:44:25.900Z,36.85
2019-03-29T02:49:30.695Z,33.42
2019-03-29T02:54:35.429Z,37.93
2019-03-29T02:59:40.182Z,36.00
2019-03-29T03:04:44.942Z,35.88
2019-03-29T03:09:49.693Z,36.53
2019-03-29T03:14:54.485Z,38.05
2019-03-29T03:19:59.234Z,36.85
2019-03-29T03:25:04.191Z,37.38
2019-03-29T03:30:10.775Z,37.40
2019-03-29T03:35:17.545Z,37.00
2019-03-29T03:40:22.355Z,38.63
2019-03-29T03:45:27.500Z,40.63
2019-03-29T03:50:42.344Z,36.30
2019-03-29T03:55:47.137Z,36.65
2019-03-29T04:00:56.917Z,36.23
2019-03-29T04:06:01.842Z,37.65
2019-03-29T04:11:06.578Z,37.10
2019-03-29T04:16:11.305Z,33.60
2019-03-29T04:21:16.140Z,33.67
2019-03-29T04:26:20.876Z,33.33
2019-03-29T04:31:25.723Z,33.67
2019-03-29T04:36:30.540Z,33.42
2019-03-29T04:41:35.276Z,35.45
2019-03-29T04:46:40.050Z,36.17
2019-03-29T04:51:44.925Z,35.65
2019-03-29T04:56:49.642Z,33.63
2019-03-29T05:01:54.375Z,31.73
2019-03-29T05:06:59.111Z,31.35
2019-03-29T05:12:03.855Z,29.60
2019-03-29T05:17:08.621Z,29.07
2019-03-29T05:22:13.354Z,30.62
2019-03-29T05:27:18.099Z,31.37
2019-03-29T05:32:24.959Z,33.42
2019-03-29T05:37:29.707Z,32.42
2019-03-29T05:42:34.575Z,29.95
2019-03-29T05:47:39.373Z,27.52
2019-03-29T05:52:44.103Z,30.52
2019-03-29T05:57:48.854Z,27.00
2019-03-29T06:02:53.585Z,33.98
2019-03-29T06:07:58.401Z,25.50
2019-03-29T06:13:03.091Z,24.77
2019-03-29T06:18:07.904Z,23.98
2019-03-29T06:23:12.665Z,24.82
2019-03-29T06:28:17.511Z,26.48
2019-03-29T06:33:23.173Z,22.22
2019-03-29T06:38:29.819Z,20.70
2019-03-29T06:43:34.585Z,19.48
2019-03-29T06:48:39.349Z,17.52
2019-03-29T06:53:47.471Z,19.92
2019-03-29T06:58:52.417Z,17.77
2019-03-29T07:03:57.172Z,18.90
2019-03-29T07:09:01.939Z,17.32
2019-03-29T07:14:06.714Z,16.55
2019-03-29T07:19:11.465Z,15.88
2019-03-29T07:24:16.190Z,16.10
2019-03-29T07:29:21.006Z,18.73
2019-03-29T07:34:25.736Z,14.75
2019-03-29T07:39:30.454Z,14.50
2019-03-29T07:44:35.333Z,14.40
2019-03-29T07:49:39.398Z,14.45
2019-03-29T07:54:44.165Z,14.78
2019-03-29T07:59:50.490Z,16.30
2019-03-29T08:04:55.503Z,14.90
2019-03-29T08:10:03.306Z,15.68
2019-03-29T08:15:09.287Z,15.50
2019-03-29T08:20:38.028Z,15.93
2019-03-29T08:25:19.272Z,15.88
2019-03-29T08:30:24.037Z,20.35
2019-03-29T08:35:28.787Z,20.08
2019-03-29T08:40:34.702Z,19.32
2019-03-29T08:45:39.467Z,20.72
2019-03-29T08:50:44.287Z,20.10
2019-03-29T08:55:49.116Z,19.73
2019-03-29T09:00:53.085Z,21.73
2019-03-29T09:05:58.000Z,22.95
2019-03-29T09:11:03.078Z,22.90
2019-03-29T09:16:07.927Z,21.00
2019-03-29T09:21:12.700Z,22.22
2019-03-29T09:26:17.494Z,21.30
2019-03-29T09:31:22.240Z,20.30
2019-03-29T09:36:26.993Z,19.12
2019-03-29T09:41:31.783Z,20.88
2019-03-29T09:46:36.544Z,17.52
2019-03-29T09:51:41.358Z,18.75
2019-03-29T09:56:48.325Z,17.27
2019-03-29T10:01:54.263Z,16.48
2019-03-29T10:06:59.471Z,14.40
2019-03-29T10:12:04.222Z,15.70
2019-03-29T10:17:08.299Z,15.78
2019-03-29T10:22:13.071Z,16.55
2019-03-29T10:27:19.183Z,16.73
2019-03-29T10:32:24.105Z,16.82
2019-03-29T10:37:28.960Z,15.78
2019-03-29T10:42:33.691Z,14.58
2019-03-29T10:47:43.592Z,13.22
2019-03-29T10:52:45.469Z,11.33
2019-03-29T10:57:50.328Z,10.98
2019-03-29T11:02:55.196Z,11.10
2019-03-29T11:08:00.899Z,11.28
2019-03-29T11:13:13.365Z,12.33
2019-03-29T11:18:12.490Z,11.18
2019-03-29T11:23:17.306Z,10.98
2019-03-29T11:28:22.172Z,11.60
2019-03-29T11:33:26.999Z,11.33
2019-03-29T11:38:31.981Z,11.28
2019-03-29T11:43:36.787Z,11.12
2019-03-29T11:48:41.604Z,11.03
2019-03-29T11:53:50.712Z,11.60
2019-03-29T11:58:52.980Z,12.30
2019-03-29T12:03:58.299Z,11.70
2019-03-29T12:09:04.522Z,10.48
2019-03-29T12:14:09.446Z,10.93
2019-03-29T12:19:14.204Z,13.78
2019-03-29T12:24:19.096Z,10.90
2019-03-29T12:29:24.023Z,11.22
2019-03-29T12:34:28.834Z,10.55
2019-03-29T12:39:33.594Z,11.40
2019-03-29T12:44:38.304Z,11.28
2019-03-29T12:49:43.030Z,12.35
2019-03-29T12:54:47.769Z,12.40
2019-03-29T12:59:52.517Z,13.20
2019-03-29T13:04:57.349Z,11.10
2019-03-29T13:10:02.369Z,11.50
2019-03-29T13:15:07.567Z,11.73
2019-03-29T13:20:13.110Z,11.57
2019-03-29T13:25:18.083Z,11.50
2019-03-29T13:30:23.003Z,10.90
2019-03-29T13:35:27.926Z,10.60
2019-03-29T13:40:32.692Z,11.22
2019-03-29T13:45:37.432Z,12.82
2019-03-29T13:50:42.178Z,10.48
2019-03-29T13:55:47.000Z,12.35
2019-03-29T14:00:51.817Z,10.48
2019-03-29T14:05:56.699Z,11.22
2019-03-29T14:11:00.887Z,10.15
2019-03-29T14:16:04.930Z,11.53
2019-03-29T14:21:08.915Z,11.18
2019-03-29T14:26:16.131Z,11.05
2019-03-29T14:31:20.287Z,10.55
2019-03-29T14:36:26.398Z,11.28
2019-03-29T14:41:32.222Z,9.48
2019-03-29T14:46:37.091Z,10.05
2019-03-29T14:51:41.839Z,11.57
2019-03-29T14:56:46.609Z,10.78
2019-03-29T15:01:51.360Z,10.20
2019-03-29T15:06:56.401Z,10.55
2019-03-29T15:12:01.142Z,10.50
2019-03-29T15:17:05.179Z,11.43
2019-03-29T15:22:09.996Z,10.88
2019-03-29T15:27:14.852Z,11.35
2019-03-29T15:32:19.696Z,10.15
2019-03-29T15:37:24.477Z,10.50
2019-03-29T15:42:29.339Z,11.43
2019-03-29T15:47:34.054Z,10.50
2019-03-29T15:52:38.828Z,10.78
2019-03-29T15:57:43.637Z,10.45
2019-03-29T16:02:48.352Z,10.95
2019-03-29T16:07:53.183Z,11.90
2019-03-29T16:12:59.479Z,10.25
2019-03-29T16:18:04.218Z,10.80
2019-03-29T16:23:10.015Z,11.08
2019-03-29T16:28:14.304Z,11.38
2019-03-29T16:33:19.060Z,11.10
2019-03-29T16:38:25.061Z,12.73
2019-03-29T16:43:31.228Z,10.82
2019-03-29T16:48:37.146Z,12.15
2019-03-29T16:53:41.973Z,11.25
2019-03-29T16:58:47.705Z,11.53
2019-03-29T17:03:52.875Z,11.83
2019-03-29T17:08:57.761Z,10.88
2019-03-29T17:14:02.619Z,11.30
2019-03-29T17:19:08.454Z,14.33
2019-03-29T17:24:13.261Z,11.40
2019-03-29T17:29:18.039Z,12.10
2019-03-29T17:34:23.553Z,11.22
2019-03-29T17:39:28.327Z,10.35
2019-03-29T17:44:33.837Z,12.80
2019-03-29T17:49:38.631Z,15.03
2019-03-29T17:54:43.483Z,12.60
2019-03-29T17:59:48.235Z,12.78
2019-03-29T18:04:53.077Z,13.62
2019-03-29T18:10:08.640Z,12.55
2019-03-29T18:15:13.776Z,16.85
2019-03-29T18:20:18.660Z,17.07
2019-03-29T18:25:23.490Z,13.40
2019-03-29T18:30:43.963Z,14.80
2019-03-29T18:35:48.833Z,21.90
2019-03-29T18:40:53.674Z,17.67
2019-03-29T18:45:58.396Z,16.42
2019-03-29T18:51:03.228Z,15.68
2019-03-29T18:56:08.050Z,13.90
2019-03-29T19:01:12.806Z,14.43
2019-03-29T19:06:17.650Z,15.43
2019-03-29T19:11:22.502Z,13.78
2019-03-29T19:16:27.420Z,15.75
2019-03-29T19:21:32.178Z,16.05
2019-03-29T19:26:36.948Z,16.70
2019-03-29T19:31:41.767Z,15.72
2019-03-29T19:36:46.520Z,15.20
2019-03-29T19:41:51.280Z,14.65
2019-03-29T19:46:56.205Z,17.10
2019-03-29T19:52:00.996Z,13.70
2019-03-29T19:57:05.769Z,15.28
2019-03-29T20:02:10.614Z,17.60
2019-03-29T20:07:15.369Z,15.23
2019-03-29T20:12:20.274Z,16.70
2019-03-29T20:17:27.692Z,17.10
2019-03-29T20:22:31.693Z,18.62
2019-03-29T20:27:36.498Z,16.90
2019-03-29T20:32:41.362Z,14.65
2019-03-29T20:37:46.257Z,17.57
2019-03-29T20:42:51.162Z,17.48
2019-03-29T20:47:55.929Z,15.70
2019-03-29T20:53:00.680Z,16.55
2019-03-29T20:58:05.473Z,15.83
2019-03-29T21:03:10.323Z,15.05
2019-03-29T21:08:16.473Z,17.32
2019-03-29T21:13:21.329Z,17.42
2019-03-29T21:18:26.078Z,21.05
2019-03-29T21:23:32.348Z,22.07
2019-03-29T21:28:37.126Z,25.23
2019-03-29T21:33:41.929Z,24.80
2019-03-29T21:38:46.814Z,21.42
2019-03-29T21:43:51.641Z,29.55
2019-03-29T21:48:56.426Z,26.80
2019-03-29T21:54:01.292Z,21.05
2019-03-29T21:59:06.088Z,23.62
2019-03-29T22:04:10.852Z,21.60
2019-03-29T22:09:15.671Z,19.15
2019-03-29T22:14:20.427Z,17.87
2019-03-29T22:19:25.163Z,19.67
2019-03-29T22:24:29.915Z,16.95
2019-03-29T22:29:34.678Z,17.57
2019-03-29T22:34:39.461Z,17.92
2019-03-29T22:39:44.225Z,19.07
2019-03-29T22:44:49.030Z,28.12
2019-03-29T22:49:53.767Z,19.42
2019-03-29T22:54:58.552Z,19.30
2019-03-29T23:00:03.418Z,18.50
2019-03-29T23:05:08.709Z,18.50
2019-03-29T23:10:13.452Z,18.23
2019-03-29T23:15:18.208Z,19.98
2019-03-29T23:20:22.981Z,17.37
2019-03-29T23:25:27.783Z,18.75
2019-03-29T23:30:32.554Z,16.75
2019-03-29T23:35:37.369Z,18.20
2019-03-29T23:40:42.133Z,19.12
2019-03-29T23:45:47.167Z,18.15
2019-03-29T23:50:52.031Z,17.25
2019-03-29T23:55:56.812Z,16.67
